Terminal Aerodrome Forecast
Issued by NWS

Home | Current Version | Previous Version | Text Only | Print | Product List | Glossary On
Versions: 1 2 3 4 5 6 7 8 9 10 11 12 13 14 15 16 17
126
FTAK31 PAJN 072323
TAFAPG
TAF
PAPG 072323Z 0800/0824 VRB05KT P6SM VCSH FEW010 OVC030
     FM080600 VRB03KT 6SM BR FEW005 BKN050
     FM081600 VRB05KT 6SM -RA BR FEW010 OVC030=

USA.gov is the U.S. government's official web portal to all federal, state and local government web resources and services.